San Antonio, Texas
Current Conditions -  °F | °C
As of 11:58 AM on Friday 31 Oct 2014 (Local Time) from KSKF Reporting Station
Clear Clear  
Wind Chill: 73°   Ceiling: Unl
Heat Index: 73°   Visibility: 10mi
Dew Point: 45°   Wind: 12mph
Humidity: 38%   Direction: 50°NE
Pressure: 30.26"   Gusts: NA
Location:  29.42°N, 98.49°W
Report Text: KSKF 311658Z AUTO 05010KT 10SM CLR 23/07 A3026 RMK AO2 SLP242 T02260074 $
Loading
Personal Weather Stations






























Interactive Weather Map
Tropical Storm Tracking
New forecast layout! Learn more

10-Day Weather Forecast

Advertisements
Track Severe Weather on mobile